sensor_id;sensor_type;location;lat;lon;timestamp;temperature;humidity
27540;DHT22;15906;52.046;4.724;2022-08-01T00:00:07;20.00;99.90
27540;DHT22;15906;52.046;4.724;2022-08-01T00:02:33;20.00;99.90
27540;DHT22;15906;52.046;4.724;2022-08-01T00:04:59;20.00;99.90
27540;DHT22;15906;52.046;4.724;2022-08-01T00:07:25;20.00;99.90
27540;DHT22;15906;52.046;4.724;2022-08-01T00:09:51;20.00;99.90
27540;DHT22;15906;52.046;4.724;2022-08-01T00:12:16;19.90;99.90
27540;DHT22;15906;52.046;4.724;2022-08-01T00:14:42;19.90;99.90
27540;DHT22;15906;52.046;4.724;2022-08-01T00:17:07;19.90;99.90
27540;DHT22;15906;52.046;4.724;2022-08-01T00:19:33;19.90;99.90
27540;DHT22;15906;52.046;4.724;2022-08-01T00:21:59;20.00;99.90
27540;DHT22;15906;52.046;4.724;2022-08-01T00:24:24;20.00;99.90
27540;DHT22;15906;52.046;4.724;2022-08-01T00:26:50;20.00;99.90
27540;DHT22;15906;52.046;4.724;2022-08-01T00:29:16;20.00;99.90
27540;DHT22;15906;52.046;4.724;2022-08-01T00:31:41;20.00;99.90
27540;DHT22;15906;52.046;4.724;2022-08-01T00:34:07;20.00;99.90
27540;DHT22;15906;52.046;4.724;2022-08-01T00:36:32;20.00;99.90
27540;DHT22;15906;52.046;4.724;2022-08-01T00:38:58;20.00;99.90
27540;DHT22;15906;52.046;4.724;2022-08-01T00:41:23;19.90;99.90
27540;DHT22;15906;52.046;4.724;2022-08-01T00:43:49;19.90;99.90
27540;DHT22;15906;52.046;4.724;2022-08-01T00:46:14;19.90;99.90
27540;DHT22;15906;52.046;4.724;2022-08-01T00:48:40;19.90;99.90
27540;DHT22;15906;52.046;4.724;2022-08-01T00:51:07;19.90;99.90
27540;DHT22;15906;52.046;4.724;2022-08-01T00:53:33;19.80;99.90
27540;DHT22;15906;52.046;4.724;2022-08-01T00:55:59;19.80;99.90
27540;DHT22;15906;52.046;4.724;2022-08-01T00:58:25;19.70;99.90
27540;DHT22;15906;52.046;4.724;2022-08-01T01:00:50;19.70;99.90
27540;DHT22;15906;52.046;4.724;2022-08-01T01:03:16;19.80;99.90
27540;DHT22;15906;52.046;4.724;2022-08-01T01:06:38;19.80;99.90
27540;DHT22;15906;52.046;4.724;2022-08-01T01:08:55;19.80;99.90
27540;DHT22;15906;52.046;4.724;2022-08-01T01:11:27;19.80;99.90
27540;DHT22;15906;52.046;4.724;2022-08-01T01:13:59;19.80;99.90
27540;DHT22;15906;52.046;4.724;2022-08-01T01:16:26;19.80;99.90
27540;DHT22;15906;52.046;4.724;2022-08-01T01:18:57;19.80;99.90
27540;DHT22;15906;52.046;4.724;2022-08-01T01:21:47;19.70;99.90
27540;DHT22;15906;52.046;4.724;2022-08-01T01:24:28;19.70;99.90
27540;DHT22;15906;52.046;4.724;2022-08-01T01:27:21;19.60;99.90
27540;DHT22;15906;52.046;4.724;2022-08-01T01:29:51;19.60;99.90
27540;DHT22;15906;52.046;4.724;2022-08-01T01:32:24;19.70;99.90
27540;DHT22;15906;52.046;4.724;2022-08-01T01:34:54;19.60;99.90
27540;DHT22;15906;52.046;4.724;2022-08-01T01:37:23;19.50;99.90
27540;DHT22;15906;52.046;4.724;2022-08-01T01:39:51;19.50;99.90
27540;DHT22;15906;52.046;4.724;2022-08-01T01:42:18;19.30;99.90
27540;DHT22;15906;52.046;4.724;2022-08-01T01:44:48;19.40;99.90
27540;DHT22;15906;52.046;4.724;2022-08-01T01:47:16;19.50;99.90
27540;DHT22;15906;52.046;4.724;2022-08-01T01:49:44;19.50;99.90
27540;DHT22;15906;52.046;4.724;2022-08-01T01:52:13;19.60;99.90
27540;DHT22;15906;52.046;4.724;2022-08-01T01:54:45;19.60;99.90
27540;DHT22;15906;52.046;4.724;2022-08-01T01:57:13;19.60;99.90
27540;DHT22;15906;52.046;4.724;2022-08-01T01:59:40;19.60;99.90
27540;DHT22;15906;52.046;4.724;2022-08-01T02:02:08;19.60;99.90
27540;DHT22;15906;52.046;4.724;2022-08-01T02:04:36;19.60;99.90
27540;DHT22;15906;52.046;4.724;2022-08-01T02:07:03;19.60;99.90
27540;DHT22;15906;52.046;4.724;2022-08-01T02:09:30;19.50;99.90
27540;DHT22;15906;52.046;4.724;2022-08-01T02:11:58;19.60;99.90
27540;DHT22;15906;52.046;4.724;2022-08-01T02:14:24;19.60;99.90
27540;DHT22;15906;52.046;4.724;2022-08-01T02:16:52;19.50;99.90
27540;DHT22;15906;52.046;4.724;2022-08-01T02:19:20;19.50;99.90
27540;DHT22;15906;52.046;4.724;2022-08-01T02:22:02;19.50;99.90
27540;DHT22;15906;52.046;4.724;2022-08-01T02:24:47;19.40;99.90
27540;DHT22;15906;52.046;4.724;2022-08-01T02:27:21;19.40;99.90
27540;DHT22;15906;52.046;4.724;2022-08-01T02:29:59;19.40;99.90
27540;DHT22;15906;52.046;4.724;2022-08-01T02:32:58;19.50;99.90
27540;DHT22;15906;52.046;4.724;2022-08-01T02:35:31;19.60;99.90
27540;DHT22;15906;52.046;4.724;2022-08-01T02:37:58;19.50;99.90
27540;DHT22;15906;52.046;4.724;2022-08-01T02:40:28;19.60;99.90
27540;DHT22;15906;52.046;4.724;2022-08-01T02:42:55;19.60;99.90
27540;DHT22;15906;52.046;4.724;2022-08-01T02:45:24;19.60;99.90
27540;DHT22;15906;52.046;4.724;2022-08-01T02:47:51;19.50;99.90
27540;DHT22;15906;52.046;4.724;2022-08-01T02:50:20;19.50;99.90
27540;DHT22;15906;52.046;4.724;2022-08-01T02:52:48;19.60;99.90
27540;DHT22;15906;52.046;4.724;2022-08-01T02:55:14;19.60;99.90
27540;DHT22;15906;52.046;4.724;2022-08-01T02:57:42;19.70;99.90
27540;DHT22;15906;52.046;4.724;2022-08-01T03:00:09;19.60;99.90
27540;DHT22;15906;52.046;4.724;2022-08-01T03:02:36;19.60;99.90
27540;DHT22;15906;52.046;4.724;2022-08-01T03:05:03;19.70;99.90
27540;DHT22;15906;52.046;4.724;2022-08-01T03:07:29;19.60;99.90
27540;DHT22;15906;52.046;4.724;2022-08-01T03:09:56;19.60;99.90
27540;DHT22;15906;52.046;4.724;2022-08-01T03:12:25;19.60;99.90
27540;DHT22;15906;52.046;4.724;2022-08-01T03:14:53;19.60;99.90
27540;DHT22;15906;52.046;4.724;2022-08-01T03:17:22;19.60;99.90
27540;DHT22;15906;52.046;4.724;2022-08-01T03:19:49;19.60;99.90
27540;DHT22;15906;52.046;4.724;2022-08-01T03:22:17;19.50;99.90
27540;DHT22;15906;52.046;4.724;2022-08-01T03:24:44;19.50;99.90
27540;DHT22;15906;52.046;4.724;2022-08-01T03:27:11;19.50;99.90
27540;DHT22;15906;52.046;4.724;2022-08-01T03:29:39;19.50;99.90
27540;DHT22;15906;52.046;4.724;2022-08-01T03:32:06;19.40;99.90
27540;DHT22;15906;52.046;4.724;2022-08-01T03:34:33;19.40;99.90
27540;DHT22;15906;52.046;4.724;2022-08-01T03:37:03;19.40;99.90
27540;DHT22;15906;52.046;4.724;2022-08-01T03:39:39;19.40;99.90
27540;DHT22;15906;52.046;4.724;2022-08-01T03:42:12;19.40;99.90
27540;DHT22;15906;52.046;4.724;2022-08-01T03:44:39;19.40;99.90
27540;DHT22;15906;52.046;4.724;2022-08-01T03:47:08;19.40;99.90
27540;DHT22;15906;52.046;4.724;2022-08-01T03:49:40;19.50;99.90
27540;DHT22;15906;52.046;4.724;2022-08-01T03:52:08;19.50;99.90
27540;DHT22;15906;52.046;4.724;2022-08-01T03:54:37;19.40;99.90
27540;DHT22;15906;52.046;4.724;2022-08-01T03:57:04;19.40;99.90
27540;DHT22;15906;52.046;4.724;2022-08-01T03:59:30;19.40;99.90
27540;DHT22;15906;52.046;4.724;2022-08-01T04:01:57;19.40;99.90
27540;DHT22;15906;52.046;4.724;2022-08-01T04:04:23;19.40;99.90
27540;DHT22;15906;52.046;4.724;2022-08-01T04:06:48;19.40;99.90
27540;DHT22;15906;52.046;4.724;2022-08-01T04:09:19;19.40;99.90
27540;DHT22;15906;52.046;4.724;2022-08-01T04:11:45;19.30;99.90
27540;DHT22;15906;52.046;4.724;2022-08-01T04:14:10;19.30;99.90
27540;DHT22;15906;52.046;4.724;2022-08-01T04:16:37;19.30;99.90
27540;DHT22;15906;52.046;4.724;2022-08-01T04:19:03;19.30;99.90
27540;DHT22;15906;52.046;4.724;2022-08-01T04:21:31;19.30;99.90
27540;DHT22;15906;52.046;4.724;2022-08-01T04:24:02;19.40;99.90
27540;DHT22;15906;52.046;4.724;2022-08-01T04:26:32;19.30;99.90
27540;DHT22;15906;52.046;4.724;2022-08-01T04:28:58;19.30;99.90
27540;DHT22;15906;52.046;4.724;2022-08-01T04:31:26;19.20;99.90
27540;DHT22;15906;52.046;4.724;2022-08-01T04:33:53;19.30;99.90
27540;DHT22;15906;52.046;4.724;2022-08-01T04:36:22;19.20;99.90
27540;DHT22;15906;52.046;4.724;2022-08-01T04:38:52;19.20;99.90
27540;DHT22;15906;52.046;4.724;2022-08-01T04:41:20;19.30;99.90
27540;DHT22;15906;52.046;4.724;2022-08-01T04:43:46;19.30;99.90
27540;DHT22;15906;52.046;4.724;2022-08-01T04:46:13;19.40;99.90
27540;DHT22;15906;52.046;4.724;2022-08-01T04:48:39;19.40;99.90
27540;DHT22;15906;52.046;4.724;2022-08-01T04:51:12;19.40;99.90
27540;DHT22;15906;52.046;4.724;2022-08-01T04:53:40;19.40;99.90
27540;DHT22;15906;52.046;4.724;2022-08-01T04:56:06;19.40;99.90
27540;DHT22;15906;52.046;4.724;2022-08-01T04:58:31;19.40;99.90
27540;DHT22;15906;52.046;4.724;2022-08-01T05:00:57;19.50;99.90
27540;DHT22;15906;52.046;4.724;2022-08-01T05:03:22;19.50;99.90
27540;DHT22;15906;52.046;4.724;2022-08-01T05:05:48;19.40;99.90
27540;DHT22;15906;52.046;4.724;2022-08-01T05:08:14;19.50;99.90
27540;DHT22;15906;52.046;4.724;2022-08-01T05:10:39;19.60;99.90
27540;DHT22;15906;52.046;4.724;2022-08-01T05:13:05;19.50;99.90
27540;DHT22;15906;52.046;4.724;2022-08-01T05:15:31;19.50;99.90
27540;DHT22;15906;52.046;4.724;2022-08-01T05:17:57;19.60;99.90
27540;DHT22;15906;52.046;4.724;2022-08-01T05:20:23;19.70;99.90
27540;DHT22;15906;52.046;4.724;2022-08-01T05:22:48;19.60;99.90
27540;DHT22;15906;52.046;4.724;2022-08-01T05:25:14;19.60;99.90
27540;DHT22;15906;52.046;4.724;2022-08-01T05:27:39;19.70;99.90
27540;DHT22;15906;52.046;4.724;2022-08-01T05:30:09;19.60;99.90
27540;DHT22;15906;52.046;4.724;2022-08-01T05:32:35;19.60;99.90
27540;DHT22;15906;52.046;4.724;2022-08-01T05:35:01;19.60;99.90
27540;DHT22;15906;52.046;4.724;2022-08-01T05:37:27;19.60;99.90
27540;DHT22;15906;52.046;4.724;2022-08-01T05:39:53;19.50;99.90
27540;DHT22;15906;52.046;4.724;2022-08-01T05:42:18;19.50;99.90
27540;DHT22;15906;52.046;4.724;2022-08-01T05:44:44;19.50;99.90
27540;DHT22;15906;52.046;4.724;2022-08-01T05:47:09;19.60;99.90
27540;DHT22;15906;52.046;4.724;2022-08-01T05:49:34;19.60;99.90
27540;DHT22;15906;52.046;4.724;2022-08-01T05:52:00;19.60;99.90
27540;DHT22;15906;52.046;4.724;2022-08-01T05:54:27;19.50;99.90
27540;DHT22;15906;52.046;4.724;2022-08-01T05:56:52;19.60;99.90
27540;DHT22;15906;52.046;4.724;2022-08-01T05:59:18;19.60;99.90
27540;DHT22;15906;52.046;4.724;2022-08-01T06:01:44;19.40;99.90
27540;DHT22;15906;52.046;4.724;2022-08-01T06:04:10;19.40;99.90
27540;DHT22;15906;52.046;4.724;2022-08-01T06:06:35;19.40;99.90
27540;DHT22;15906;52.046;4.724;2022-08-01T06:09:01;19.40;99.90
27540;DHT22;15906;52.046;4.724;2022-08-01T06:11:26;19.50;99.90
27540;DHT22;15906;52.046;4.724;2022-08-01T06:13:52;19.40;99.90
27540;DHT22;15906;52.046;4.724;2022-08-01T06:16:18;19.30;99.90
27540;DHT22;15906;52.046;4.724;2022-08-01T06:18:43;19.30;99.90
27540;DHT22;15906;52.046;4.724;2022-08-01T06:21:09;19.40;99.90
27540;DHT22;15906;52.046;4.724;2022-08-01T06:23:34;19.50;99.90
27540;DHT22;15906;52.046;4.724;2022-08-01T06:26:00;19.40;99.90
27540;DHT22;15906;52.046;4.724;2022-08-01T06:28:26;19.50;99.90
27540;DHT22;15906;52.046;4.724;2022-08-01T06:30:51;19.60;99.90
27540;DHT22;15906;52.046;4.724;2022-08-01T06:33:17;19.70;99.90
27540;DHT22;15906;52.046;4.724;2022-08-01T06:35:42;19.70;99.90
27540;DHT22;15906;52.046;4.724;2022-08-01T06:38:08;19.60;99.90
27540;DHT22;15906;52.046;4.724;2022-08-01T06:40:33;19.70;99.90
27540;DHT22;15906;52.046;4.724;2022-08-01T06:42:59;19.60;99.90
27540;DHT22;15906;52.046;4.724;2022-08-01T06:45:25;19.60;99.90
27540;DHT22;15906;52.046;4.724;2022-08-01T06:47:52;19.40;99.90
27540;DHT22;15906;52.046;4.724;2022-08-01T06:50:18;19.30;99.90
27540;DHT22;15906;52.046;4.724;2022-08-01T06:52:43;19.20;99.90
27540;DHT22;15906;52.046;4.724;2022-08-01T06:55:09;19.20;99.90
27540;DHT22;15906;52.046;4.724;2022-08-01T06:57:35;19.10;99.90
27540;DHT22;15906;52.046;4.724;2022-08-01T07:00:04;19.10;99.90
27540;DHT22;15906;52.046;4.724;2022-08-01T07:02:31;19.10;99.90
27540;DHT22;15906;52.046;4.724;2022-08-01T07:04:56;18.90;99.90
27540;DHT22;15906;52.046;4.724;2022-08-01T07:07:25;18.90;99.90
27540;DHT22;15906;52.046;4.724;2022-08-01T07:09:52;18.90;99.90
27540;DHT22;15906;52.046;4.724;2022-08-01T07:12:17;18.90;99.90
27540;DHT22;15906;52.046;4.724;2022-08-01T07:14:42;18.90;99.90
27540;DHT22;15906;52.046;4.724;2022-08-01T07:17:08;18.70;99.90
27540;DHT22;15906;52.046;4.724;2022-08-01T07:19:33;18.70;99.90
27540;DHT22;15906;52.046;4.724;2022-08-01T07:21:59;18.60;99.90
27540;DHT22;15906;52.046;4.724;2022-08-01T07:24:24;18.70;99.90
27540;DHT22;15906;52.046;4.724;2022-08-01T07:26:50;18.60;99.90
27540;DHT22;15906;52.046;4.724;2022-08-01T07:29:16;18.60;99.90
27540;DHT22;15906;52.046;4.724;2022-08-01T07:31:41;18.60;99.90
27540;DHT22;15906;52.046;4.724;2022-08-01T07:34:07;18.50;99.90
27540;DHT22;15906;52.046;4.724;2022-08-01T07:36:32;18.70;99.90
27540;DHT22;15906;52.046;4.724;2022-08-01T07:38:58;18.70;99.90
27540;DHT22;15906;52.046;4.724;2022-08-01T07:41:23;18.80;99.90
27540;DHT22;15906;52.046;4.724;2022-08-01T07:43:49;18.70;99.90
27540;DHT22;15906;52.046;4.724;2022-08-01T07:46:15;18.70;99.90
27540;DHT22;15906;52.046;4.724;2022-08-01T07:48:41;18.70;99.90
27540;DHT22;15906;52.046;4.724;2022-08-01T07:51:07;18.70;99.90
27540;DHT22;15906;52.046;4.724;2022-08-01T07:53:33;18.70;99.90
27540;DHT22;15906;52.046;4.724;2022-08-01T07:55:59;18.70;99.90
27540;DHT22;15906;52.046;4.724;2022-08-01T07:58:25;18.60;99.90
27540;DHT22;15906;52.046;4.724;2022-08-01T08:00:50;18.60;99.90
27540;DHT22;15906;52.046;4.724;2022-08-01T08:03:15;18.70;99.90
27540;DHT22;15906;52.046;4.724;2022-08-01T08:05:41;18.90;99.90
27540;DHT22;15906;52.046;4.724;2022-08-01T08:08:08;19.00;99.90
27540;DHT22;15906;52.046;4.724;2022-08-01T08:10:34;18.90;99.90
27540;DHT22;15906;52.046;4.724;2022-08-01T08:13:00;19.00;99.90
27540;DHT22;15906;52.046;4.724;2022-08-01T08:15:27;19.00;99.90
27540;DHT22;15906;52.046;4.724;2022-08-01T08:17:52;19.10;99.90
27540;DHT22;15906;52.046;4.724;2022-08-01T08:20:18;19.20;99.90
27540;DHT22;15906;52.046;4.724;2022-08-01T08:22:43;19.20;99.90
27540;DHT22;15906;52.046;4.724;2022-08-01T08:25:08;19.20;99.90
27540;DHT22;15906;52.046;4.724;2022-08-01T08:27:35;19.20;99.90
27540;DHT22;15906;52.046;4.724;2022-08-01T08:30:05;19.40;99.90
27540;DHT22;15906;52.046;4.724;2022-08-01T08:32:36;19.50;99.90
27540;DHT22;15906;52.046;4.724;2022-08-01T08:35:02;19.60;99.90
27540;DHT22;15906;52.046;4.724;2022-08-01T08:37:28;19.80;99.90
27540;DHT22;15906;52.046;4.724;2022-08-01T08:39:53;19.90;99.90
27540;DHT22;15906;52.046;4.724;2022-08-01T08:42:19;19.80;99.90
27540;DHT22;15906;52.046;4.724;2022-08-01T08:48:06;19.80;99.90
27540;DHT22;15906;52.046;4.724;2022-08-01T08:50:32;19.80;99.90
27540;DHT22;15906;52.046;4.724;2022-08-01T08:52:59;19.70;99.90
27540;DHT22;15906;52.046;4.724;2022-08-01T08:55:27;19.80;99.90
27540;DHT22;15906;52.046;4.724;2022-08-01T08:57:54;19.90;99.90
27540;DHT22;15906;52.046;4.724;2022-08-01T09:00:20;19.90;99.90
27540;DHT22;15906;52.046;4.724;2022-08-01T09:02:47;20.20;99.90
27540;DHT22;15906;52.046;4.724;2022-08-01T09:05:14;20.60;99.90
27540;DHT22;15906;52.046;4.724;2022-08-01T09:07:40;20.70;99.90
27540;DHT22;15906;52.046;4.724;2022-08-01T09:10:06;20.80;99.90
27540;DHT22;15906;52.046;4.724;2022-08-01T09:12:32;21.00;99.90
27540;DHT22;15906;52.046;4.724;2022-08-01T09:14:58;20.70;99.90
27540;DHT22;15906;52.046;4.724;2022-08-01T09:17:24;21.20;99.90
27540;DHT22;15906;52.046;4.724;2022-08-01T09:19:54;21.60;99.90
27540;DHT22;15906;52.046;4.724;2022-08-01T09:22:22;21.60;99.90
27540;DHT22;15906;52.046;4.724;2022-08-01T09:27:28;21.90;99.90
27540;DHT22;15906;52.046;4.724;2022-08-01T09:30:07;21.90;99.90
27540;DHT22;15906;52.046;4.724;2022-08-01T09:32:33;21.90;99.90
27540;DHT22;15906;52.046;4.724;2022-08-01T09:35:22;21.60;99.90
27540;DHT22;15906;52.046;4.724;2022-08-01T09:37:47;21.80;99.90
27540;DHT22;15906;52.046;4.724;2022-08-01T09:40:13;21.70;99.90
27540;DHT22;15906;52.046;4.724;2022-08-01T09:42:38;21.70;99.90
27540;DHT22;15906;52.046;4.724;2022-08-01T09:45:04;21.60;99.90
27540;DHT22;15906;52.046;4.724;2022-08-01T09:47:40;21.60;99.90
27540;DHT22;15906;52.046;4.724;2022-08-01T09:50:06;21.80;99.90
27540;DHT22;15906;52.046;4.724;2022-08-01T09:52:32;22.00;99.90
27540;DHT22;15906;52.046;4.724;2022-08-01T09:55:00;22.40;99.90
27540;DHT22;15906;52.046;4.724;2022-08-01T09:57:26;22.40;99.90
27540;DHT22;15906;52.046;4.724;2022-08-01T09:59:55;22.40;99.90
27540;DHT22;15906;52.046;4.724;2022-08-01T10:02:34;22.40;99.90
27540;DHT22;15906;52.046;4.724;2022-08-01T10:05:01;22.30;99.90
27540;DHT22;15906;52.046;4.724;2022-08-01T10:07:27;22.30;99.90
27540;DHT22;15906;52.046;4.724;2022-08-01T10:09:53;22.60;99.90
27540;DHT22;15906;52.046;4.724;2022-08-01T10:12:21;22.80;99.90
27540;DHT22;15906;52.046;4.724;2022-08-01T10:14:48;23.20;99.90
27540;DHT22;15906;52.046;4.724;2022-08-01T10:17:24;22.80;99.90
27540;DHT22;15906;52.046;4.724;2022-08-01T10:19:50;23.00;99.90
27540;DHT22;15906;52.046;4.724;2022-08-01T10:22:16;23.10;99.90
27540;DHT22;15906;52.046;4.724;2022-08-01T10:24:45;23.10;99.90
27540;DHT22;15906;52.046;4.724;2022-08-01T10:27:11;22.90;99.90
27540;DHT22;15906;52.046;4.724;2022-08-01T10:29:56;22.70;99.90
27540;DHT22;15906;52.046;4.724;2022-08-01T10:32:23;22.60;99.90
27540;DHT22;15906;52.046;4.724;2022-08-01T10:34:52;22.10;99.90
27540;DHT22;15906;52.046;4.724;2022-08-01T10:37:18;21.90;99.90
27540;DHT22;15906;52.046;4.724;2022-08-01T10:39:43;21.70;99.90
27540;DHT22;15906;52.046;4.724;2022-08-01T10:42:11;22.00;99.90
27540;DHT22;15906;52.046;4.724;2022-08-01T10:44:38;22.10;99.90
27540;DHT22;15906;52.046;4.724;2022-08-01T10:47:10;22.30;99.90
27540;DHT22;15906;52.046;4.724;2022-08-01T10:49:50;22.40;99.90
27540;DHT22;15906;52.046;4.724;2022-08-01T10:52:19;22.40;99.90
27540;DHT22;15906;52.046;4.724;2022-08-01T10:54:45;22.40;99.90
27540;DHT22;15906;52.046;4.724;2022-08-01T10:57:11;22.40;99.90
27540;DHT22;15906;52.046;4.724;2022-08-01T10:59:51;22.50;99.90
27540;DHT22;15906;52.046;4.724;2022-08-01T11:02:31;22.30;99.90
27540;DHT22;15906;52.046;4.724;2022-08-01T11:05:19;22.10;99.90
27540;DHT22;15906;52.046;4.724;2022-08-01T11:07:48;21.70;99.90
27540;DHT22;15906;52.046;4.724;2022-08-01T11:10:22;21.60;99.90
27540;DHT22;15906;52.046;4.724;2022-08-01T11:12:49;21.70;99.90
27540;DHT22;15906;52.046;4.724;2022-08-01T11:17:44;22.00;99.90
27540;DHT22;15906;52.046;4.724;2022-08-01T11:20:16;22.00;99.90
27540;DHT22;15906;52.046;4.724;2022-08-01T11:30:42;22.30;99.90
27540;DHT22;15906;52.046;4.724;2022-08-01T11:33:10;22.70;99.90
27540;DHT22;15906;52.046;4.724;2022-08-01T11:35:37;23.10;99.90
27540;DHT22;15906;52.046;4.724;2022-08-01T11:38:25;23.30;99.90
27540;DHT22;15906;52.046;4.724;2022-08-01T11:41:15;23.10;99.90
27540;DHT22;15906;52.046;4.724;2022-08-01T11:44:04;22.80;99.90
27540;DHT22;15906;52.046;4.724;2022-08-01T11:49:53;22.50;99.90
27540;DHT22;15906;52.046;4.724;2022-08-01T11:52:29;22.80;99.90
27540;DHT22;15906;52.046;4.724;2022-08-01T11:55:07;23.40;99.90
27540;DHT22;15906;52.046;4.724;2022-08-01T11:57:34;23.70;99.90
27540;DHT22;15906;52.046;4.724;2022-08-01T12:00:03;23.80;99.90
27540;DHT22;15906;52.046;4.724;2022-08-01T12:02:32;23.70;99.90
27540;DHT22;15906;52.046;4.724;2022-08-01T12:05:01;23.80;99.90
27540;DHT22;15906;52.046;4.724;2022-08-01T12:07:28;23.90;99.90
27540;DHT22;15906;52.046;4.724;2022-08-01T12:10:02;23.90;99.90
27540;DHT22;15906;52.046;4.724;2022-08-01T12:12:30;24.10;99.90
27540;DHT22;15906;52.046;4.724;2022-08-01T12:14:58;24.40;99.90
27540;DHT22;15906;52.046;4.724;2022-08-01T12:17:31;24.60;99.90
27540;DHT22;15906;52.046;4.724;2022-08-01T12:19:57;24.60;99.90
27540;DHT22;15906;52.046;4.724;2022-08-01T12:22:24;24.50;99.90
27540;DHT22;15906;52.046;4.724;2022-08-01T12:24:50;24.20;99.90
27540;DHT22;15906;52.046;4.724;2022-08-01T12:27:29;23.90;99.90
27540;DHT22;15906;52.046;4.724;2022-08-01T12:29:56;23.90;99.90
27540;DHT22;15906;52.046;4.724;2022-08-01T12:32:30;23.70;99.90
27540;DHT22;15906;52.046;4.724;2022-08-01T12:35:00;23.40;99.90
27540;DHT22;15906;52.046;4.724;2022-08-01T12:37:26;23.40;99.90
27540;DHT22;15906;52.046;4.724;2022-08-01T12:39:51;23.10;99.90
27540;DHT22;15906;52.046;4.724;2022-08-01T12:42:17;23.00;99.90
27540;DHT22;15906;52.046;4.724;2022-08-01T12:44:45;23.00;99.90
27540;DHT22;15906;52.046;4.724;2022-08-01T12:47:13;23.00;99.90
27540;DHT22;15906;52.046;4.724;2022-08-01T12:49:42;23.20;99.90
27540;DHT22;15906;52.046;4.724;2022-08-01T12:52:08;23.60;99.90
27540;DHT22;15906;52.046;4.724;2022-08-01T12:57:34;23.90;99.90
27540;DHT22;15906;52.046;4.724;2022-08-01T13:00:12;24.00;99.90
27540;DHT22;15906;52.046;4.724;2022-08-01T13:02:38;23.80;99.90
27540;DHT22;15906;52.046;4.724;2022-08-01T13:05:05;23.80;99.90
27540;DHT22;15906;52.046;4.724;2022-08-01T13:10:10;23.80;99.90
27540;DHT22;15906;52.046;4.724;2022-08-01T13:12:37;24.00;99.90
27540;DHT22;15906;52.046;4.724;2022-08-01T13:15:21;24.20;99.90
27540;DHT22;15906;52.046;4.724;2022-08-01T13:17:47;24.10;99.90
27540;DHT22;15906;52.046;4.724;2022-08-01T13:20:32;24.20;99.90
27540;DHT22;15906;52.046;4.724;2022-08-01T13:23:20;24.30;99.90
27540;DHT22;15906;52.046;4.724;2022-08-01T13:25:50;24.00;99.90
27540;DHT22;15906;52.046;4.724;2022-08-01T13:28:22;23.80;99.90
27540;DHT22;15906;52.046;4.724;2022-08-01T13:30:59;23.70;99.90
27540;DHT22;15906;52.046;4.724;2022-08-01T13:33:28;23.70;99.90
27540;DHT22;15906;52.046;4.724;2022-08-01T13:35:55;23.60;99.90
27540;DHT22;15906;52.046;4.724;2022-08-01T13:38:21;23.90;99.90
27540;DHT22;15906;52.046;4.724;2022-08-01T13:41:07;24.10;99.90
27540;DHT22;15906;52.046;4.724;2022-08-01T13:43:33;24.50;99.90
27540;DHT22;15906;52.046;4.724;2022-08-01T13:46:00;24.60;99.90
27540;DHT22;15906;52.046;4.724;2022-08-01T13:48:28;24.20;99.90
27540;DHT22;15906;52.046;4.724;2022-08-01T13:50:53;24.20;99.90
27540;DHT22;15906;52.046;4.724;2022-08-01T13:53:19;24.20;99.90
27540;DHT22;15906;52.046;4.724;2022-08-01T13:55:44;24.00;99.90
27540;DHT22;15906;52.046;4.724;2022-08-01T13:58:10;23.80;99.90
27540;DHT22;15906;52.046;4.724;2022-08-01T14:00:35;24.00;99.90
27540;DHT22;15906;52.046;4.724;2022-08-01T14:03:01;24.20;99.90
27540;DHT22;15906;52.046;4.724;2022-08-01T14:05:26;24.40;99.90
27540;DHT22;15906;52.046;4.724;2022-08-01T14:07:52;24.50;99.90
27540;DHT22;15906;52.046;4.724;2022-08-01T14:10:17;24.60;99.90
27540;DHT22;15906;52.046;4.724;2022-08-01T14:12:43;24.90;99.90
27540;DHT22;15906;52.046;4.724;2022-08-01T14:15:09;25.00;99.90
27540;DHT22;15906;52.046;4.724;2022-08-01T14:17:34;24.60;99.90
27540;DHT22;15906;52.046;4.724;2022-08-01T14:20:00;24.50;99.90
27540;DHT22;15906;52.046;4.724;2022-08-01T14:22:26;24.80;99.90
27540;DHT22;15906;52.046;4.724;2022-08-01T14:24:51;24.60;99.90
27540;DHT22;15906;52.046;4.724;2022-08-01T14:27:17;24.30;99.90
27540;DHT22;15906;52.046;4.724;2022-08-01T14:29:42;24.20;99.90
27540;DHT22;15906;52.046;4.724;2022-08-01T14:32:08;23.90;99.90
27540;DHT22;15906;52.046;4.724;2022-08-01T14:34:33;23.70;99.90
27540;DHT22;15906;52.046;4.724;2022-08-01T14:36:58;23.50;99.90
27540;DHT22;15906;52.046;4.724;2022-08-01T14:39:24;23.30;99.90
27540;DHT22;15906;52.046;4.724;2022-08-01T14:41:49;23.00;99.90
27540;DHT22;15906;52.046;4.724;2022-08-01T14:44:15;22.80;99.90
27540;DHT22;15906;52.046;4.724;2022-08-01T14:46:41;22.80;99.90
27540;DHT22;15906;52.046;4.724;2022-08-01T14:49:09;23.00;99.90
27540;DHT22;15906;52.046;4.724;2022-08-01T14:51:34;23.00;99.90
27540;DHT22;15906;52.046;4.724;2022-08-01T14:54:02;23.10;99.90
27540;DHT22;15906;52.046;4.724;2022-08-01T14:56:27;23.00;99.90
27540;DHT22;15906;52.046;4.724;2022-08-01T14:58:53;23.00;99.90
27540;DHT22;15906;52.046;4.724;2022-08-01T15:01:19;23.00;99.90
27540;DHT22;15906;52.046;4.724;2022-08-01T15:03:44;23.10;99.90
27540;DHT22;15906;52.046;4.724;2022-08-01T15:06:11;23.00;99.90
27540;DHT22;15906;52.046;4.724;2022-08-01T15:08:37;22.80;99.90
27540;DHT22;15906;52.046;4.724;2022-08-01T15:11:03;22.80;99.90
27540;DHT22;15906;52.046;4.724;2022-08-01T15:13:28;22.80;99.90
27540;DHT22;15906;52.046;4.724;2022-08-01T15:15:54;22.80;99.90
27540;DHT22;15906;52.046;4.724;2022-08-01T15:18:20;22.80;99.90
27540;DHT22;15906;52.046;4.724;2022-08-01T15:20:45;22.60;99.90
27540;DHT22;15906;52.046;4.724;2022-08-01T15:23:11;22.60;99.90
27540;DHT22;15906;52.046;4.724;2022-08-01T15:25:36;22.60;99.90
27540;DHT22;15906;52.046;4.724;2022-08-01T15:28:02;22.60;99.90
27540;DHT22;15906;52.046;4.724;2022-08-01T15:30:28;22.60;99.90
27540;DHT22;15906;52.046;4.724;2022-08-01T15:32:53;22.60;99.90
27540;DHT22;15906;52.046;4.724;2022-08-01T15:35:19;22.60;99.90
27540;DHT22;15906;52.046;4.724;2022-08-01T15:37:44;22.70;99.90
27540;DHT22;15906;52.046;4.724;2022-08-01T15:40:11;22.70;99.90
27540;DHT22;15906;52.046;4.724;2022-08-01T15:42:36;22.60;99.90
27540;DHT22;15906;52.046;4.724;2022-08-01T15:45:02;22.60;99.90
27540;DHT22;15906;52.046;4.724;2022-08-01T15:47:29;22.60;99.90
27540;DHT22;15906;52.046;4.724;2022-08-01T15:49:55;22.60;99.90
27540;DHT22;15906;52.046;4.724;2022-08-01T15:52:24;22.60;99.90
27540;DHT22;15906;52.046;4.724;2022-08-01T15:54:50;22.50;99.90
27540;DHT22;15906;52.046;4.724;2022-08-01T15:57:16;22.50;99.90
27540;DHT22;15906;52.046;4.724;2022-08-01T15:59:41;22.50;99.90